John Grimsley #59 — WDE7876 — position and weather

sailwx.info

Track history (hours):
 
Tides and Currents Weather Stations Pressure Air Temp Water Temp Dewpoint Dewpoint Depression Visibility Wind Speed Wind Dir Waves Ship Positions

John Grimsley #59

Owner: Florida Marine Transporters, Inc., Mandeville, LA. More information available from US FCC via Universal Licensing System and Coast Guard Vessel Documentation Center.

Last reported at 2018-May-12 14:05 UTC. Time now 2018-May-22 19:53 UTC.
Position N 32°36' W 091°08'.
Warning: this ship's position is 10 days out of date.

Length 43 m; draft 3.2 m.

Type: Ship. MMSI: 367398790.

Date/timePositionNaut miles runAvg speedWind from/ knotsBaromVisibWave heightAir tempDewpointWater temp
2018-May-12 14:05N 32°36' W 091°08'0 5.9
2018-May-12 14:01N 32°36' W 091°08'6 5.1
2018-May-12 12:52N 32°30' W 091°07'2 5.2
2018-May-12 12:30N 32°28' W 091°06'3 5.4
2018-May-12 12:00N 32°27' W 091°04'3 5.2
2018-May-12 11:30N 32°26' W 091°01'2 4.7
2018-May-12 11:01N 32°23' W 090°60'2 4.6
2018-May-12 10:30N 32°21' W 090°59'3 5.3
2018-May-12 10:01N 32°21' W 090°56'2 4.4
2018-May-12 09:31N 32°19' W 090°54'2 3.3
2018-May-12 09:00N 32°18' W 090°55'0 0.4
2018-May-12 08:31N 32°18' W 090°56'2 3.3
2018-May-12 08:01N 32°17' W 090°57'2 4.8
2018-May-12 07:31N 32°15' W 090°59'2 4.9
2018-May-12 07:01N 32°12' W 090°59'2 4.6
2018-May-12 06:30N 32°10' W 090°60'2 4.9
2018-May-12 06:00N 32°08' W 091°01'2 4.2
2018-May-12 05:29N 32°08' W 091°03'3 5.4
2018-May-12 05:00N 32°08' W 091°06'5 5.4
2018-May-12 04:05N 32°04' W 091°04'1 4.6
2018-May-12 03:54N 32°03' W 091°04'2 5.1
2018-May-12 03:30N 32°01' W 091°05'5 5.1
2018-May-12 02:29N 31°59' W 091°10'  
2018-May-09 11:41N 30°03' W 090°36'  
Track history (hours):
 
Tides and Currents Weather Stations Pressure Air Temp Water Temp Dewpoint Dewpoint Depression Visibility Wind Speed Wind Dir Waves Ship Positions

John Grimsley #59

Owner: Florida Marine Transporters, Inc., Mandeville, LA. More information available from US FCC via Universal Licensing System and Coast Guard Vessel Documentation Center.

Last reported at 2018-May-12 14:05 UTC. Time now 2018-May-22 19:53 UTC.
Position N 32°36' W 091°08'.
Warning: this ship's position is 10 days out of date.

Length 43 m; draft 3.2 m.

Type: Ship. MMSI: 367398790.

Date/timePositionNaut miles runAvg speedWind from/ knotsBaromVisibWave heightAir tempDewpointWater temp
2018-May-12 14:05N 32°36' W 091°08'0 5.9
2018-May-12 14:01N 32°36' W 091°08'6 5.1
2018-May-12 12:52N 32°30' W 091°07'2 5.2
2018-May-12 12:30N 32°28' W 091°06'3 5.4
2018-May-12 12:00N 32°27' W 091°04'3 5.2
2018-May-12 11:30N 32°26' W 091°01'2 4.7
2018-May-12 11:01N 32°23' W 090°60'2 4.6
2018-May-12 10:30N 32°21' W 090°59'3 5.3
2018-May-12 10:01N 32°21' W 090°56'2 4.4
2018-May-12 09:31N 32°19' W 090°54'2 3.3
2018-May-12 09:00N 32°18' W 090°55'0 0.4
2018-May-12 08:31N 32°18' W 090°56'2 3.3
2018-May-12 08:01N 32°17' W 090°57'2 4.8
2018-May-12 07:31N 32°15' W 090°59'2 4.9
2018-May-12 07:01N 32°12' W 090°59'2 4.6
2018-May-12 06:30N 32°10' W 090°60'2 4.9
2018-May-12 06:00N 32°08' W 091°01'2 4.2
2018-May-12 05:29N 32°08' W 091°03'3 5.4
2018-May-12 05:00N 32°08' W 091°06'5 5.4
2018-May-12 04:05N 32°04' W 091°04'1 4.6
2018-May-12 03:54N 32°03' W 091°04'2 5.1
2018-May-12 03:30N 32°01' W 091°05'5 5.1
2018-May-12 02:29N 31°59' W 091°10'  
2018-May-09 11:41N 30°03' W 090°36'  

Dump ship's entire track history